Warning: Javascript must be enabled to use all the features on this page!


Page Loading - Please Wait...

* We've detected you're using a mobile device. Find our Next Generation Station Page here.
Click to hideNews Bulletins

Peak Streamflow for the Nation

USGS 11532500 SMITH R NR CRESCENT CITY CA

Del Norte County, California
Hydrologic Unit Code 18010101
Latitude  41°47'30", Longitude 124°04'30" NAD27
Drainage area 614  square miles
Gage datum 79.26 feet above NGVD29
Output formats
Table
Graph
Tab-separated file
peakfq (watstore) format
Reselect output format
Water
Year
Date Gage
Height
(feet)
Stream-
flow
(cfs)
1927 1927 41.40Bm  
1932 1932-03-18 26.45 61,700
1933 1933-01-02 24.30 51,500
1934 1934-01-14 20.20 33,100
1935 1934-11-01 20.40 33,900
1936 1936-01-14 25.10 55,500
1937 1937-04-13 27.80 70,100
1938 1937-12-11 29.40 78,900
1939 1938-12-02 24.20 51,000
1940 1940-02-28 21.22 37,200
1941 1941-01-25 23.20 46,000
1942 1941-12-18 26.40 62,400
1943 1942-12-31 30.90 91,400
1944 1943-11-04 21.92 40,600
1945 1945-02-08 25.05 56,500
1946 1945-12-28 35.60 123,000
1947 1946-11-18 24.00 50,000
1948 1948-01-06 29.60 83,100
1949 1948-12-12 26.42 64,300
1950 1950-01-18 30.90 91,400
1951 1950-10-29 39.51 152,000
1952 1952-02-01 25.60 61,500
1953 1953-01-18 37.80 139,000
1954 1953-11-23 38.00 141,000
1955 1954-12-31 27.45 70,200
1956 1955-12-22 41.20 165,000
1957 1957-02-26 26.93 67,100
1958 1958-01-29 31.30 94,300
1959 1959-01-12 30.75 90,400
1960 1960-02-08 28.13 74,300
1961 1960-11-24 27.28 69,200
1962 1961-11-23 27.71 71,800
1963 1962-12-02 34.10 113,000
1964 1964-01-20 31.22 93,400
1965 1964-12-22 48.50 228,000
1966 1966-01-06 38.53 145,000
1967 1967-01-28 30.35 87,800
1968 1968-02-23 28.72 77,800
1969 1969-01-13 27.32 69,400
1970 1970-01-22 35.18 116,000
1971 1971-01-16 36.58 128,000
1972 1972-01-22 43.37 182,000
1973 1972-12-22 25.63 49,800
1974 1973-11-05 33.97 106,000
1975 1975-03-18 36.78 129,000
1976 1976-02-26 24.97 45,400
1977 1977-09-28 17.77 15,800
1978 1977-12-14 33.44 102,000
1979 1979-01-11 30.50 80,300
1980 1979-11-24 29.94 76,500
1981 1980-12-02 29.70 74,800
1982 1981-12-19 31.80 89,600
1983 1983-03-30 31.64 88,400
1984 1984-02-13 29.36 72,500
1985 1984-11-12 26.76 55,700
1986 1986-02-22 32.78 96,800
1987 1987-02-02 24.49 42,400
1988 1987-12-10 30.01 76,900
1989 1988-11-22 34.58 111,000
1990 1990-01-08 34.86 113,000
1991 1991-03-04 26.26 52,700
1992 1992-04-16 18.54 31,700
1993 1993-01-20 25.02 76,400
1994 1993-12-08 19.50 37,000
1995 1995-01-09 25.60 81,400
1996 1995-12-12 24.07 68,500
1997 1996-11-18 29.65 126,000
1998 1998-01-17 26.81 93,200
1999 1998-11-21 31.29 143,000
2000 2000-01-11 25.70 82,300
2001 2000-12-14 12.85 12,100
2002 2001-12-14 19.67 38,300
2003 2002-12-27 23.01 60,200
2004 2003-12-13 25.56 81,000
2005 2004-12-09 26.16 86,600
2006 2005-12-30 29.55 121,000
2007 2006-12-13 23.74 65,800
2008 2007-10-19 23.83 66,500
2009 2008-12-29 27.87 103,000
2010 2010-01-01 22.91 59,400
2011 2010-12-29 21.99 53,100
2012 2012-01-19 27.90 93,000
2013 2012-12-02 25.86 77,900
2014 2014-02-14 25.34 74,300
2015 2014-12-21 24.71 70,000
2016 2015-12-13 30.76 114,000
2017 2016-12-15 25.64 75,500
2018 2017-11-21 18.66 35,200
2019 2019-04-08 26.67 82,700
2020 2020-01-26 20.76 45,700
?
  Peak Gage-Height Qualification Codes.